Aviation Digital Data Service (ADDS)

Output produced by METARs form (0310 UTC 18 August 2017)
found at http://www.aviationweather.gov/adds/metars/
 
FVHA 180300Z 12004KT CAVOK 13/04 Q1021 NOSIG
TAF FVHA 172200Z 1800/1906 03009KT CAVOK
       
TAF FVBU 171600Z 1718/1824 18010KT CAVOK 
     TEMPO 1812/1817 VRB05KT 
     BECMG 1818/1820 12013KT
       
TAF FVFA 171600Z 1718/1824 15008KT CAVOK